Time;durP1;ratioP1;P1;durP2;ratioP2;P2;SDS_P1;SDS_P2;PMS_P1;PMS_P2;Temp;Humidity;BMP_temperature;BMP_pressure;BME280_temperature;BME280_humidity;BME280_pressure;Samples;Min_cycle;Max_cycle;Signal;HPM_P1;HPM_P2
2023/04/09 00:02:02;;;;;;;20.17;11.87;;;9.40;99.90;;;;;;4974873;28;20201;-86
2023/04/09 00:04:29;;;;;;;19.37;10.47;;;9.30;99.90;;;;;;4973547;28;20252;-85
2023/04/09 00:06:56;;;;;;;19.27;11.13;;;9.30;99.90;;;;;;4974775;28;20217;-78
2023/04/09 00:09:23;;;;;;;18.80;11.23;;;9.40;99.90;;;;;;4974095;28;20204;-86
2023/04/09 00:11:50;;;;;;;19.20;11.03;;;9.40;99.90;;;;;;4975408;28;20197;-85
2023/04/09 00:14:17;;;;;;;16.63;10.40;;;9.40;99.90;;;;;;4975489;28;20208;-83
2023/04/09 00:16:43;;;;;;;20.23;10.20;;;9.40;99.90;;;;;;4973937;28;20196;-73
2023/04/09 00:19:11;;;;;;;18.77;11.00;;;9.40;99.90;;;;;;4972717;28;20202;-75
2023/04/09 00:21:38;;;;;;;16.40;9.87;;;9.40;99.90;;;;;;4974266;28;20215;-73
2023/04/09 00:24:05;;;;;;;16.53;10.17;;;9.40;99.90;;;;;;4973618;28;20555;-79
2023/04/09 00:26:32;;;;;;;16.77;9.70;;;9.40;99.90;;;;;;4972589;28;20533;-73
2023/04/09 00:28:59;;;;;;;18.43;10.57;;;9.40;99.90;;;;;;4972660;28;20308;-72
2023/04/09 00:31:26;;;;;;;16.10;9.67;;;9.40;99.90;;;;;;4973979;28;20198;-72
2023/04/09 00:33:53;;;;;;;17.00;10.27;;;9.30;99.90;;;;;;4974027;28;20539;-72
2023/04/09 00:36:20;;;;;;;15.80;9.67;;;9.30;99.90;;;;;;4972175;28;20237;-73
2023/04/09 00:38:48;;;;;;;17.50;9.80;;;9.20;99.90;;;;;;4972216;28;20196;-72
2023/04/09 00:41:16;;;;;;;18.43;10.10;;;9.20;99.90;;;;;;4972267;28;20694;-72
2023/04/09 00:43:43;;;;;;;16.37;9.67;;;9.20;99.90;;;;;;4972674;28;20256;-72
2023/04/09 00:46:10;;;;;;;16.37;9.40;;;9.20;99.90;;;;;;4972147;28;20197;-72
2023/04/09 00:48:38;;;;;;;17.53;9.77;;;9.20;99.90;;;;;;4972003;28;20225;-76
2023/04/09 00:51:05;;;;;;;18.23;9.77;;;9.20;99.90;;;;;;4972458;28;20204;-75
2023/04/09 00:53:32;;;;;;;14.47;9.10;;;9.20;99.90;;;;;;4973538;28;20758;-73
2023/04/09 00:55:59;;;;;;;15.83;10.17;;;9.20;99.90;;;;;;4973599;28;20638;-80
2023/04/09 00:58:26;;;;;;;16.57;9.57;;;9.20;99.90;;;;;;4974413;28;20235;-77
2023/04/09 01:00:53;;;;;;;20.67;9.73;;;9.30;99.90;;;;;;4972443;28;20198;-72
2023/04/09 01:03:20;;;;;;;15.60;9.27;;;9.40;99.90;;;;;;4971920;28;20633;-80
2023/04/09 01:06:06;;;;;;;15.83;9.47;;;9.40;99.90;;;;;;4972103;28;20300;-73
2023/04/09 01:08:51;;;;;;;14.93;9.40;;;9.40;99.90;;;;;;4973163;28;20244;-75
2023/04/09 01:11:23;;;;;;;16.13;9.33;;;9.40;99.90;;;;;;4971600;28;20201;-71
2023/04/09 01:14:08;;;;;;;18.77;9.80;;;9.30;99.90;;;;;;4971884;28;20206;-72
2023/04/09 01:16:40;;;;;;;16.13;10.33;;;9.40;99.90;;;;;;4973156;28;20189;-72
2023/04/09 01:19:48;;;;;;;17.73;9.70;;;9.30;99.90;;;;;;4972954;28;20277;-83
2023/04/09 01:22:47;;;;;;;18.07;10.03;;;9.40;99.90;;;;;;4971624;28;20591;-72
2023/04/09 01:25:26;;;;;;;17.40;10.13;;;9.40;99.90;;;;;;4972241;28;20198;-81
2023/04/09 01:28:08;;;;;;;16.87;9.53;;;9.40;99.90;;;;;;4955873;28;20209;-80
2023/04/09 01:30:35;;;;;;;18.50;9.87;;;9.40;99.90;;;;;;4973181;28;20518;-71
2023/04/09 01:33:04;;;;;;;15.50;9.53;;;9.40;99.90;;;;;;4972301;28;20636;-75
2023/04/09 01:35:31;;;;;;;17.23;10.07;;;9.30;99.90;;;;;;4971357;28;20308;-77
2023/04/09 01:37:59;;;;;;;14.90;9.17;;;9.30;99.90;;;;;;4971300;28;20264;-77
2023/04/09 01:40:26;;;;;;;18.80;10.33;;;9.30;99.90;;;;;;4971737;28;20682;-83
2023/04/09 01:42:54;;;;;;;16.27;9.77;;;9.30;99.90;;;;;;4971891;28;20209;-75
2023/04/09 01:45:21;;;;;;;17.70;10.50;;;9.20;99.90;;;;;;4971722;28;20190;-75
2023/04/09 01:47:48;;;;;;;37.37;12.37;;;9.30;99.90;;;;;;4971692;28;20213;-76
2023/04/09 01:50:16;;;;;;;17.77;9.87;;;9.20;99.90;;;;;;4977056;28;20271;-79
2023/04/09 01:52:43;;;;;;;16.47;10.33;;;9.20;99.90;;;;;;4975818;28;20197;-70
2023/04/09 01:55:10;;;;;;;15.90;9.43;;;9.20;99.90;;;;;;4976661;28;20204;-71
2023/04/09 01:57:36;;;;;;;16.43;9.50;;;9.20;99.90;;;;;;4975406;28;20725;-78
2023/04/09 02:00:05;;;;;;;17.77;10.03;;;9.20;99.90;;;;;;4975336;28;20194;-72
2023/04/09 02:02:47;;;;;;;19.83;9.80;;;9.20;99.90;;;;;;4975687;28;20202;-78
2023/04/09 02:05:19;;;;;;;17.93;10.03;;;9.30;99.90;;;;;;4975182;28;20205;-71
2023/04/09 02:07:53;;;;;;;16.77;10.23;;;9.30;99.90;;;;;;4976440;28;20215;-71
2023/04/09 02:10:23;;;;;;;20.10;11.50;;;9.30;99.90;;;;;;4975503;28;20224;-72
2023/04/09 02:12:51;;;;;;;18.77;11.40;;;9.30;99.90;;;;;;4975148;28;20190;-73
2023/04/09 02:15:20;;;;;;;21.13;12.30;;;9.30;99.90;;;;;;4975989;28;20608;-75
2023/04/09 02:17:47;;;;;;;22.50;13.30;;;9.30;99.90;;;;;;4976051;28;20236;-71
2023/04/09 02:20:18;;;;;;;25.60;13.73;;;9.30;99.90;;;;;;4975990;28;20232;-79
2023/04/09 02:22:45;;;;;;;23.67;13.00;;;9.30;99.90;;;;;;4976857;28;20242;-75
2023/04/09 02:25:12;;;;;;;25.40;13.87;;;9.30;99.90;;;;;;4979497;28;20201;-72
2023/04/09 02:27:39;;;;;;;27.40;13.60;;;9.30;99.90;;;;;;4981072;28;20221;-82
2023/04/09 02:30:06;;;;;;;28.47;14.43;;;9.30;99.90;;;;;;4977800;28;20190;-85
2023/04/09 02:32:33;;;;;;;25.07;13.10;;;9.20;99.90;;;;;;4975698;28;20213;-82
2023/04/09 02:35:00;;;;;;;24.97;14.00;;;9.20;99.90;;;;;;4976062;28;20194;-79
2023/04/09 02:37:27;;;;;;;23.70;13.20;;;9.20;99.90;;;;;;4958992;28;20706;-83
2023/04/09 02:39:54;;;;;;;22.43;13.57;;;9.20;99.90;;;;;;4976131;28;20194;-79
2023/04/09 02:42:21;;;;;;;24.23;13.80;;;9.20;99.90;;;;;;4975019;28;20201;-80
2023/04/09 02:44:47;;;;;;;26.43;14.20;;;9.20;99.90;;;;;;4974765;28;20201;-84
2023/04/09 02:47:14;;;;;;;23.97;13.53;;;9.20;99.90;;;;;;4974530;28;20205;-81
2023/04/09 02:49:41;;;;;;;24.87;14.87;;;9.20;99.90;;;;;;4975057;28;20215;-84
2023/04/09 02:52:10;;;;;;;23.80;13.87;;;9.20;99.90;;;;;;4976064;28;20190;-82
2023/04/09 02:54:37;;;;;;;26.30;14.37;;;9.20;99.90;;;;;;4974662;28;20296;-83
2023/04/09 02:57:04;;;;;;;25.53;14.27;;;9.10;99.90;;;;;;4959006;28;20296;-82
2023/04/09 02:59:33;;;;;;;24.93;13.97;;;9.10;99.90;;;;;;4975169;28;20208;-82
2023/04/09 03:01:59;;;;;;;27.13;15.23;;;9.10;99.90;;;;;;4974741;28;20252;-83
2023/04/09 03:04:26;;;;;;;25.50;15.00;;;9.10;99.90;;;;;;4974461;28;20285;-81
2023/04/09 03:06:53;;;;;;;26.33;14.73;;;9.10;99.90;;;;;;4974261;28;20209;-82
2023/04/09 03:09:20;;;;;;;29.67;15.03;;;9.10;99.90;;;;;;4975856;28;20217;-81
2023/04/09 03:11:47;;;;;;;27.87;14.90;;;9.20;99.90;;;;;;4974574;28;20651;-80
2023/04/09 03:14:14;;;;;;;29.13;15.20;;;9.20;99.90;;;;;;4974221;28;20208;-84
2023/04/09 03:16:41;;;;;;;28.30;15.67;;;9.20;99.90;;;;;;4974807;28;20189;-83
2023/04/09 03:19:07;;;;;;;29.57;16.17;;;9.20;99.90;;;;;;4974878;28;20197;-81
2023/04/09 03:21:34;;;;;;;27.37;15.37;;;9.20;99.90;;;;;;4974463;28;20203;-79
2023/04/09 03:24:02;;;;;;;27.60;15.90;;;9.10;99.90;;;;;;4973642;28;20244;-80
2023/04/09 03:26:34;;;;;;;29.83;15.97;;;9.00;99.90;;;;;;4974027;28;20209;-81
2023/04/09 03:29:03;;;;;;;27.30;15.80;;;8.90;99.90;;;;;;4973926;28;20252;-79
2023/04/09 03:31:34;;;;;;;38.07;17.20;;;9.00;99.90;;;;;;4974158;28;20289;-80
2023/04/09 03:34:02;;;;;;;30.47;15.90;;;9.00;99.90;;;;;;4974295;28;20201;-74
2023/04/09 03:36:28;;;;;;;27.43;15.90;;;9.10;99.90;;;;;;4973671;28;20563;-77
2023/04/09 03:38:55;;;;;;;26.20;14.90;;;9.00;99.90;;;;;;4975649;28;20651;-75
2023/04/09 03:41:22;;;;;;;27.40;15.03;;;8.90;99.90;;;;;;4975442;28;20194;-79
2023/04/09 03:43:49;;;;;;;24.73;13.83;;;8.90;99.90;;;;;;4973825;28;20718;-78
2023/04/09 03:46:17;;;;;;;27.50;14.43;;;8.90;99.90;;;;;;4974469;28;20189;-76
2023/04/09 03:48:44;;;;;;;27.50;15.33;;;8.90;99.90;;;;;;4973557;28;20248;-80
2023/04/09 03:51:12;;;;;;;24.87;14.50;;;8.90;99.90;;;;;;4973398;28;20592;-75
2023/04/09 03:53:40;;;;;;;26.37;14.60;;;8.80;99.90;;;;;;4973702;28;20213;-74
2023/04/09 03:56:09;;;;;;;30.10;14.53;;;8.80;99.90;;;;;;4973386;28;20202;-72
2023/04/09 03:58:36;;;;;;;26.03;14.60;;;8.70;99.90;;;;;;4974483;28;20248;-74
2023/04/09 04:01:03;;;;;;;27.83;14.77;;;8.70;99.90;;;;;;4973423;28;20202;-74
2023/04/09 04:03:30;;;;;;;30.10;16.13;;;8.70;99.90;;;;;;4974783;28;20204;-82
2023/04/09 04:06:02;;;;;;;27.37;15.13;;;8.60;99.90;;;;;;4973199;28;20224;-75
2023/04/09 04:08:29;;;;;;;26.23;15.13;;;8.60;99.90;;;;;;4973390;28;20224;-75
2023/04/09 04:11:02;;;;;;;28.97;15.30;;;8.50;99.90;;;;;;4973804;28;20181;-79
2023/04/09 04:13:31;;;;;;;28.83;15.57;;;8.50;99.90;;;;;;4973262;28;20841;-74
2023/04/09 04:15:58;;;;;;;35.63;18.03;;;8.40;99.90;;;;;;4974839;28;20189;-74
2023/04/09 04:18:25;;;;;;;35.73;17.03;;;8.40;99.90;;;;;;4974724;28;20229;-73
2023/04/09 04:20:52;;;;;;;34.03;16.90;;;8.40;99.90;;;;;;4974657;28;20690;-72
2023/04/09 04:23:19;;;;;;;31.13;16.40;;;8.30;99.90;;;;;;4973576;28;20229;-74
2023/04/09 04:25:46;;;;;;;28.07;15.53;;;8.30;99.90;;;;;;4975327;28;20272;-78
2023/04/09 04:28:13;;;;;;;31.23;16.20;;;8.30;99.90;;;;;;4956637;28;20213;-80
2023/04/09 04:30:41;;;;;;;52.30;18.33;;;8.30;99.90;;;;;;4972979;28;20209;-76
2023/04/09 04:33:08;;;;;;;38.03;17.83;;;8.20;99.90;;;;;;4972638;28;20562;-77
2023/04/09 04:35:35;;;;;;;32.33;16.87;;;8.20;99.90;;;;;;4973632;28;20245;-78
2023/04/09 04:38:02;;;;;;;34.43;17.83;;;8.20;99.90;;;;;;4973747;28;20201;-78
2023/04/09 04:40:29;;;;;;;31.70;16.67;;;8.20;99.90;;;;;;4972413;28;20209;-79
2023/04/09 04:42:56;;;;;;;39.20;18.93;;;8.20;99.90;;;;;;4971999;28;20248;-78
2023/04/09 04:45:23;;;;;;;32.37;16.73;;;8.30;99.90;;;;;;4972407;28;20208;-76
2023/04/09 04:47:50;;;;;;;33.23;17.77;;;8.30;99.90;;;;;;4972083;28;20272;-77
2023/04/09 04:50:17;;;;;;;31.53;17.30;;;8.40;99.90;;;;;;4972161;28;20217;-78
2023/04/09 04:52:44;;;;;;;30.40;17.40;;;8.50;99.90;;;;;;4972407;28;20665;-76
2023/04/09 04:55:11;;;;;;;33.23;17.87;;;8.50;99.90;;;;;;4972473;28;20533;-77
2023/04/09 04:57:38;;;;;;;34.67;17.87;;;8.60;99.90;;;;;;4972026;28;20227;-79
2023/04/09 05:00:06;;;;;;;34.37;17.47;;;8.60;99.90;;;;;;4971908;28;20213;-77
2023/04/09 05:02:33;;;;;;;34.97;17.77;;;8.60;99.90;;;;;;4971961;28;20223;-76
2023/04/09 05:05:00;;;;;;;32.97;17.67;;;8.70;99.90;;;;;;4971724;28;20229;-80
2023/04/09 05:07:27;;;;;;;33.03;18.07;;;8.80;99.90;;;;;;4971765;28;20225;-75
2023/04/09 05:09:54;;;;;;;35.70;18.23;;;8.80;99.90;;;;;;4972016;28;20656;-75
2023/04/09 05:12:21;;;;;;;31.47;17.47;;;8.80;99.90;;;;;;4973316;28;20543;-75
2023/04/09 05:14:47;;;;;;;32.13;17.57;;;8.90;99.90;;;;;;4973162;28;20198;-75
2023/04/09 05:17:15;;;;;;;31.47;16.57;;;8.90;99.90;;;;;;4971327;28;20200;-76
2023/04/09 05:19:43;;;;;;;31.70;16.33;;;9.00;99.90;;;;;;4973018;28;20237;-75
2023/04/09 05:22:10;;;;;;;39.30;17.00;;;9.00;99.90;;;;;;4972376;28;20276;-77
2023/04/09 05:24:37;;;;;;;31.30;16.37;;;9.10;99.90;;;;;;4971210;28;20201;-75
2023/04/09 05:27:04;;;;;;;28.70;15.97;;;9.20;99.90;;;;;;4971385;28;20316;-77
2023/04/09 05:29:31;;;;;;;28.17;15.83;;;9.20;99.90;;;;;;4971221;28;20698;-82
2023/04/09 05:31:58;;;;;;;28.47;15.50;;;9.30;99.90;;;;;;4972849;28;20202;-79
2023/04/09 05:34:25;;;;;;;37.73;16.23;;;9.40;99.90;;;;;;4972831;28;20197;-80
2023/04/09 05:36:54;;;;;;;33.53;15.63;;;9.50;99.90;;;;;;4971232;28;20263;-80
2023/04/09 05:39:21;;;;;;;25.90;14.80;;;9.50;99.90;;;;;;4971392;28;20205;-75
2023/04/09 05:41:48;;;;;;;26.27;14.63;;;9.60;99.90;;;;;;4971029;28;20204;-84
2023/04/09 05:44:14;;;;;;;26.27;14.93;;;9.60;99.90;;;;;;4971503;28;20232;-81
2023/04/09 05:46:41;;;;;;;25.67;14.67;;;9.70;99.90;;;;;;4971444;28;20201;-76
2023/04/09 05:49:08;;;;;;;27.03;14.57;;;9.70;99.90;;;;;;4971621;28;20221;-75
2023/04/09 05:51:35;;;;;;;26.27;14.47;;;9.80;99.90;;;;;;4972546;28;20240;-74
2023/04/09 05:54:02;;;;;;;24.23;13.33;;;9.90;99.90;;;;;;4972784;28;20231;-72
2023/04/09 05:56:29;;;;;;;22.97;13.67;;;10.00;99.90;;;;;;4971316;28;20186;-83
2023/04/09 05:58:56;;;;;;;24.57;14.10;;;10.10;99.90;;;;;;4972389;28;20511;-74
2023/04/09 06:01:23;;;;;;;21.00;13.03;;;10.20;99.90;;;;;;4972709;28;20193;-80
2023/04/09 06:03:50;;;;;;;21.53;12.13;;;10.30;99.90;;;;;;4971431;28;20208;-79
2023/04/09 06:06:19;;;;;;;20.53;12.40;;;10.40;99.90;;;;;;4972747;28;20304;-71
2023/04/09 06:08:46;;;;;;;20.03;12.30;;;10.40;99.90;;;;;;4972692;28;20327;-81
2023/04/09 06:11:17;;;;;;;20.47;11.77;;;10.60;99.90;;;;;;4971464;28;20659;-81
2023/04/09 06:13:44;;;;;;;18.97;11.27;;;10.70;99.90;;;;;;4971942;28;20224;-80
2023/04/09 06:16:11;;;;;;;20.00;11.80;;;10.80;99.90;;;;;;4955431;28;20196;-78
2023/04/09 06:18:38;;;;;;;23.13;12.27;;;11.00;99.90;;;;;;4971130;28;20213;-80
2023/04/09 06:21:06;;;;;;;23.10;12.03;;;11.10;99.90;;;;;;4971379;28;20194;-80
2023/04/09 06:23:35;;;;;;;19.60;11.73;;;11.20;99.90;;;;;;4971228;28;20225;-76
2023/04/09 06:26:02;;;;;;;21.93;11.73;;;11.20;99.90;;;;;;4971307;28;20222;-76
2023/04/09 06:28:28;;;;;;;20.70;11.03;;;11.30;99.90;;;;;;4970474;28;20205;-74
2023/04/09 06:30:55;;;;;;;18.20;11.33;;;11.40;99.90;;;;;;4972066;28;20553;-75
2023/04/09 06:33:22;;;;;;;18.47;10.73;;;11.50;99.90;;;;;;4971268;28;20207;-74
2023/04/09 06:35:49;;;;;;;18.63;10.80;;;11.50;99.90;;;;;;4974083;28;20225;-71
2023/04/09 06:38:17;;;;;;;18.37;10.30;;;11.60;99.90;;;;;;4975831;28;20212;-76
2023/04/09 06:40:44;;;;;;;16.73;10.60;;;11.50;99.90;;;;;;4974596;28;20212;-77
2023/04/09 06:43:11;;;;;;;17.13;10.17;;;11.50;99.90;;;;;;4974673;28;20300;-73
2023/04/09 06:45:37;;;;;;;18.17;10.53;;;11.60;99.90;;;;;;4974516;28;20205;-71
2023/04/09 06:48:06;;;;;;;19.03;10.47;;;11.70;99.90;;;;;;4974330;28;20299;-71
2023/04/09 06:50:33;;;;;;;17.77;10.97;;;11.90;99.90;;;;;;4974241;28;20256;-82
2023/04/09 06:53:01;;;;;;;15.70;9.73;;;12.00;99.90;;;;;;4974688;28;20197;-72
2023/04/09 06:55:28;;;;;;;17.17;10.17;;;11.90;99.90;;;;;;4974270;28;20867;-72
2023/04/09 06:57:55;;;;;;;15.53;9.30;;;12.00;99.90;;;;;;4973894;28;20202;-71
2023/04/09 07:00:22;;;;;;;16.43;9.83;;;12.20;99.90;;;;;;4975768;28;20252;-73
2023/04/09 07:02:49;;;;;;;16.47;10.10;;;12.20;99.90;;;;;;4974324;28;20193;-73
2023/04/09 07:05:17;;;;;;;15.50;9.73;;;12.20;99.90;;;;;;4974288;28;20198;-74
2023/04/09 07:07:44;;;;;;;16.87;9.67;;;12.30;99.90;;;;;;4974189;28;20667;-80
2023/04/09 07:10:11;;;;;;;14.33;9.33;;;12.40;99.90;;;;;;4974223;28;20229;-80
2023/04/09 07:12:38;;;;;;;17.50;9.43;;;12.40;99.90;;;;;;4974171;28;20211;-84
2023/04/09 07:15:06;;;;;;;25.10;9.87;;;12.50;99.90;;;;;;4975016;28;20271;-73
2023/04/09 07:17:34;;;;;;;14.43;9.03;;;12.60;99.90;;;;;;4973972;28;20640;-84
2023/04/09 07:20:01;;;;;;;13.50;8.53;;;12.60;99.90;;;;;;4974407;28;20224;-81
2023/04/09 07:22:29;;;;;;;15.60;9.47;;;12.70;99.90;;;;;;4975360;28;20306;-86
2023/04/09 07:24:56;;;;;;;14.73;8.57;;;12.80;99.90;;;;;;4975111;28;20190;-84
2023/04/09 07:27:25;;;;;;;12.67;8.00;;;13.00;99.90;;;;;;4977708;28;20622;-83
2023/04/09 07:29:57;;;;;;;12.70;8.53;;;13.20;99.90;;;;;;4973856;28;20217;-83
2023/04/09 07:32:26;;;;;;;13.70;8.57;;;13.40;99.90;;;;;;4973768;28;20201;-73
2023/04/09 07:34:54;;;;;;;15.63;8.93;;;13.50;99.90;;;;;;4973538;28;20201;-75
2023/04/09 07:37:21;;;;;;;14.97;8.80;;;13.60;99.90;;;;;;4973203;28;20236;-76
2023/04/09 07:39:50;;;;;;;17.30;8.50;;;13.70;99.90;;;;;;4973619;28;20313;-74
2023/04/09 07:42:17;;;;;;;15.07;8.70;;;13.80;99.90;;;;;;4973467;28;20736;-77
2023/04/09 07:44:43;;;;;;;15.50;9.33;;;13.80;99.90;;;;;;4974170;28;20217;-75
2023/04/09 07:47:11;;;;;;;13.30;8.60;;;13.80;99.90;;;;;;4973614;28;20194;-73
2023/04/09 07:49:38;;;;;;;11.43;7.70;;;13.90;99.90;;;;;;4976391;28;20382;-82
2023/04/09 07:52:05;;;;;;;14.17;7.77;;;13.80;99.90;;;;;;4976804;28;20197;-82
2023/04/09 07:54:33;;;;;;;15.33;9.00;;;13.80;99.90;;;;;;4974356;28;20181;-78
2023/04/09 07:57:00;;;;;;;12.73;8.17;;;13.90;99.90;;;;;;4974218;28;20193;-73
2023/04/09 07:59:28;;;;;;;12.43;7.73;;;14.00;99.90;;;;;;4973282;28;20186;-75
2023/04/09 08:01:55;;;;;;;12.77;8.13;;;13.90;99.90;;;;;;4973141;28;20194;-73
2023/04/09 08:04:22;;;;;;;13.20;8.27;;;13.90;99.90;;;;;;4974136;28;20209;-77
2023/04/09 08:06:50;;;;;;;12.20;7.60;;;14.00;99.90;;;;;;4974964;28;20206;-73
2023/04/09 08:09:17;;;;;;;14.87;8.87;;;14.30;99.90;;;;;;4958496;28;20679;-74
2023/04/09 08:11:44;;;;;;;13.97;9.13;;;14.40;99.90;;;;;;4975165;28;20197;-73
2023/04/09 08:14:12;;;;;;;12.83;8.43;;;14.70;99.90;;;;;;4972797;28;20587;-75
2023/04/09 08:16:41;;;;;;;12.93;8.20;;;14.90;99.90;;;;;;4972241;28;20674;-74
2023/04/09 08:19:09;;;;;;;13.20;8.07;;;15.30;99.90;;;;;;4972507;28;20644;-74
2023/04/09 08:21:50;;;;;;;13.90;8.43;;;15.50;99.90;;;;;;4972599;28;20190;-74
2023/04/09 08:24:18;;;;;;;12.90;7.90;;;15.70;99.90;;;;;;4972586;28;20225;-75
2023/04/09 08:26:45;;;;;;;10.87;7.27;;;15.70;99.90;;;;;;4969401;28;20656;-76
2023/04/09 08:29:14;;;;;;;11.33;7.40;;;16.20;99.90;;;;;;4971956;28;20217;-74
2023/04/09 08:31:41;;;;;;;11.37;7.80;;;16.70;99.90;;;;;;4972361;28;20204;-74
2023/04/09 08:34:08;;;;;;;12.87;7.60;;;17.30;99.90;;;;;;4972515;28;20445;-74
2023/04/09 08:36:35;;;;;;;10.27;7.10;;;17.60;99.90;;;;;;4973133;28;20225;-73
2023/04/09 08:39:03;;;;;;;11.43;7.23;;;17.60;99.90;;;;;;4972225;28;20249;-72
2023/04/09 08:41:30;;;;;;;10.63;7.07;;;17.50;99.90;;;;;;4972507;28;20659;-74
2023/04/09 08:43:57;;;;;;;9.50;6.77;;;17.20;99.90;;;;;;4973772;28;20221;-80
2023/04/09 08:46:26;;;;;;;8.17;5.77;;;16.90;99.90;;;;;;4973694;28;20285;-72
2023/04/09 08:48:53;;;;;;;9.10;6.33;;;16.70;99.90;;;;;;4972367;28;20690;-74
2023/04/09 08:51:22;;;;;;;8.10;6.07;;;16.60;99.90;;;;;;4972373;28;20201;-74
2023/04/09 08:54:00;;;;;;;8.30;6.13;;;16.50;99.90;;;;;;4972660;28;20201;-72
2023/04/09 08:56:31;;;;;;;10.27;6.10;;;16.60;99.90;;;;;;4972369;28;20260;-76
2023/04/09 08:58:58;;;;;;;7.93;5.60;;;16.60;99.90;;;;;;4972337;28;20206;-77
2023/04/09 09:01:30;;;;;;;10.33;6.70;;;16.50;99.90;;;;;;4973996;28;20598;-74
2023/04/09 09:03:59;;;;;;;9.43;6.40;;;16.40;99.90;;;;;;4972272;28;20648;-73
2023/04/09 09:06:31;;;;;;;9.17;6.97;;;16.30;99.90;;;;;;4974508;28;20212;-76
2023/04/09 09:09:05;;;;;;;11.23;7.30;;;16.30;99.90;;;;;;4973186;28;20544;-74
2023/04/09 09:11:43;;;;;;;11.60;7.20;;;16.40;99.90;;;;;;4972058;28;20293;-72
2023/04/09 09:14:15;;;;;;;13.60;7.63;;;16.30;99.90;;;;;;4971622;28;20197;-73
2023/04/09 09:17:02;;;;;;;12.23;7.70;;;16.20;99.90;;;;;;4971587;28;20288;-73
2023/04/09 09:19:35;;;;;;;12.50;7.20;;;16.20;99.90;;;;;;4971968;28;20210;-74
2023/04/09 09:22:05;;;;;;;10.83;7.00;;;16.10;99.90;;;;;;4972740;28;20689;-81
2023/04/09 09:24:33;;;;;;;11.43;7.10;;;15.90;99.90;;;;;;4971974;28;20692;-80
2023/04/09 09:27:01;;;;;;;11.17;7.27;;;15.70;99.90;;;;;;4973083;28;20731;-84
2023/04/09 09:29:28;;;;;;;12.40;7.33;;;15.80;99.90;;;;;;4974252;28;20236;-83
2023/04/09 09:31:55;;;;;;;10.63;6.87;;;15.80;99.90;;;;;;4972663;28;20229;-83
2023/04/09 09:34:23;;;;;;;10.10;6.97;;;15.80;99.90;;;;;;4972213;28;20190;-80
2023/04/09 09:36:53;;;;;;;13.00;7.47;;;15.90;99.90;;;;;;4971516;28;20295;-83
2023/04/09 09:39:21;;;;;;;11.70;7.33;;;16.10;99.90;;;;;;4972101;28;20189;-74
2023/04/09 09:42:06;;;;;;;10.13;6.80;;;16.40;99.90;;;;;;4972089;28;20197;-81
2023/04/09 09:44:34;;;;;;;12.00;6.93;;;16.60;99.90;;;;;;4971905;28;20244;-82
2023/04/09 09:47:03;;;;;;;11.50;6.60;;;17.10;99.90;;;;;;4972051;28;20799;-78
2023/04/09 09:49:30;;;;;;;10.00;6.67;;;17.30;99.90;;;;;;4973597;28;20649;-77
2023/04/09 09:52:01;;;;;;;10.67;6.30;;;17.60;99.90;;;;;;4972184;28;20210;-77
2023/04/09 09:54:36;;;;;;;9.87;6.07;;;18.10;99.90;;;;;;4971540;28;20236;-82
2023/04/09 09:57:08;;;;;;;9.43;6.07;;;18.40;99.90;;;;;;4972568;28;20231;-77
2023/04/09 09:59:45;;;;;;;8.80;5.80;;;18.50;99.90;;;;;;4973052;28;20201;-77
2023/04/09 10:02:21;;;;;;;9.37;6.03;;;18.60;99.90;;;;;;4971587;28;20295;-71
2023/04/09 10:04:51;;;;;;;9.60;5.90;;;18.70;99.90;;;;;;4972672;28;20200;-73
2023/04/09 10:07:20;;;;;;;9.07;5.50;;;18.60;99.90;;;;;;4971047;28;20221;-72
2023/04/09 10:09:50;;;;;;;8.53;5.70;;;18.60;99.90;;;;;;4973302;28;20225;-72
2023/04/09 10:12:21;;;;;;;8.07;6.07;;;18.20;99.90;;;;;;4975106;28;20202;-73
2023/04/09 10:14:48;;;;;;;9.80;5.77;;;17.80;99.90;;;;;;4974909;28;20206;-73
2023/04/09 10:17:15;;;;;;;10.17;5.67;;;17.90;99.90;;;;;;4974945;28;20194;-74
2023/04/09 10:19:48;;;;;;;8.37;5.37;;;18.10;99.90;;;;;;4976252;28;20281;-74
2023/04/09 10:22:20;;;;;;;10.47;6.27;;;17.80;99.90;;;;;;4974967;28;20223;-73
2023/04/09 10:24:47;;;;;;;9.83;5.67;;;17.80;99.90;;;;;;4974707;28;20514;-74
2023/04/09 10:27:16;;;;;;;12.33;5.87;;;17.70;99.90;;;;;;4967277;28;20202;-74
2023/04/09 10:29:45;;;;;;;9.30;5.83;;;17.80;99.90;;;;;;4969797;28;20217;-72
2023/04/09 10:32:25;;;;;;;13.57;6.20;;;17.80;99.90;;;;;;4957186;28;20287;-73
2023/04/09 10:34:56;;;;;;;10.73;5.43;;;17.80;99.90;;;;;;4960042;28;20320;-72
2023/04/09 10:37:25;;;;;;;6.70;4.70;;;17.60;99.90;;;;;;4974708;28;20221;-72
2023/04/09 10:39:53;;;;;;;6.73;4.60;;;17.30;99.90;;;;;;4974479;28;20276;-73
2023/04/09 10:42:26;;;;;;;15.27;5.20;;;17.30;99.90;;;;;;4974634;28;20212;-72
2023/04/09 10:45:13;;;;;;;7.40;5.40;;;17.30;99.90;;;;;;4957769;28;20254;-73
2023/04/09 10:47:42;;;;;;;8.87;5.53;;;17.30;99.90;;;;;;4956181;29;20209;-73
2023/04/09 10:50:21;;;;;;;9.73;5.70;;;17.30;99.90;;;;;;4955191;29;20227;-76
2023/04/09 10:52:59;;;;;;;12.17;6.20;;;17.40;99.90;;;;;;4955065;29;20202;-74
2023/04/09 10:55:35;;;;;;;10.23;6.40;;;17.60;99.90;;;;;;4955961;28;20197;-78
2023/04/09 10:58:07;;;;;;;9.70;6.37;;;17.40;99.90;;;;;;4955062;29;20206;-72
2023/04/09 11:00:45;;;;;;;9.87;6.13;;;17.30;99.90;;;;;;4970616;28;20186;-73
2023/04/09 11:03:27;;;;;;;8.00;5.83;;;17.40;99.90;;;;;;4955025;29;20189;-73
2023/04/09 11:06:04;;;;;;;7.93;5.63;;;17.60;99.90;;;;;;4955999;28;20198;-81
2023/04/09 11:08:32;;;;;;;11.37;6.17;;;17.60;99.90;;;;;;4954875;29;20198;-73
2023/04/09 11:11:00;;;;;;;9.70;5.80;;;17.50;99.90;;;;;;4954779;29;20696;-74
2023/04/09 11:13:29;;;;;;;9.23;5.77;;;17.70;99.90;;;;;;4954718;29;20204;-74
2023/04/09 11:15:57;;;;;;;10.07;5.90;;;18.30;99.90;;;;;;4956122;28;20214;-75
2023/04/09 11:18:26;;;;;;;8.73;5.43;;;18.90;99.90;;;;;;4954804;29;20199;-80
2023/04/09 11:20:58;;;;;;;9.37;5.60;;;19.10;99.90;;;;;;4953187;28;20204;-76
2023/04/09 11:23:26;;;;;;;8.50;5.03;;;19.60;99.90;;;;;;4973970;28;20218;-77
2023/04/09 11:25:53;;;;;;;8.03;5.50;;;19.90;99.90;;;;;;4973671;28;20209;-74
2023/04/09 11:28:21;;;;;;;10.50;5.07;;;20.10;99.90;;;;;;4973663;28;20393;-76
2023/04/09 11:30:53;;;;;;;7.07;5.03;;;19.70;99.90;;;;;;4973506;28;21026;-81
2023/04/09 11:33:21;;;;;;;8.57;5.10;;;19.00;99.90;;;;;;4974661;28;20289;-84
2023/04/09 11:35:55;;;;;;;9.67;5.93;;;19.20;99.90;;;;;;4959409;28;20726;-86
2023/04/09 11:38:26;;;;;;;8.30;5.63;;;19.00;99.90;;;;;;4955337;29;20194;-84
2023/04/09 11:40:56;;;;;;;9.70;5.83;;;18.90;99.90;;;;;;4955170;28;20702;-84
2023/04/09 11:43:24;;;;;;;7.33;4.93;;;18.70;99.90;;;;;;4954648;29;20210;-83
2023/04/09 11:45:54;;;;;;;8.27;5.03;;;18.60;99.90;;;;;;4956422;29;20201;-85
2023/04/09 11:51:00;;;;;;;9.03;5.23;;;19.30;99.90;;;;;;4993630;23;20327;-82
2023/04/09 11:53:30;;;;;;;9.90;5.20;;;19.40;99.90;;;;;;4959141;28;20269;-86
2023/04/09 11:55:57;;;;;;;6.93;4.80;;;19.40;99.90;;;;;;4976351;28;20210;-79
2023/04/09 11:58:25;;;;;;;7.57;4.60;;;19.10;99.90;;;;;;4977373;28;20204;-89
2023/04/09 12:00:58;;;;;;;14.97;5.70;;;19.00;99.90;;;;;;4975673;28;20241;-87
2023/04/09 12:03:31;;;;;;;7.90;4.63;;;18.60;99.90;;;;;;4975871;28;20198;-87
2023/04/09 12:06:04;;;;;;;9.53;4.27;;;18.60;99.90;;;;;;4978357;28;20193;-79
2023/04/09 12:08:36;;;;;;;5.97;4.03;;;19.00;99.90;;;;;;4974922;28;20686;-78
2023/04/09 12:11:13;;;;;;;7.47;4.23;;;19.20;99.90;;;;;;4973547;28;20572;-78
2023/04/09 12:13:43;;;;;;;7.20;4.47;;;19.40;99.90;;;;;;4975611;28;20197;-79
2023/04/09 12:16:13;;;;;;;8.00;5.63;;;19.50;99.90;;;;;;4973596;28;20240;-84
2023/04/09 12:18:40;;;;;;;11.20;6.50;;;19.40;99.90;;;;;;4974989;28;20215;-76
2023/04/09 12:21:09;;;;;;;11.77;5.80;;;19.10;99.90;;;;;;4973789;28;20202;-80
2023/04/09 12:23:36;;;;;;;11.13;6.10;;;19.00;99.90;;;;;;4974290;28;20292;-78
2023/04/09 12:26:03;;;;;;;9.53;6.23;;;18.80;99.90;;;;;;4974414;28;20296;-85
2023/04/09 12:28:30;;;;;;;8.83;6.03;;;18.70;99.90;;;;;;4973199;28;20636;-83
2023/04/09 12:30:58;;;;;;;20.43;6.67;;;18.70;99.90;;;;;;4975286;28;20228;-80
2023/04/09 12:33:26;;;;;;;8.93;6.00;;;18.60;99.90;;;;;;4974286;28;20272;-81
2023/04/09 12:35:53;;;;;;;10.00;6.00;;;18.40;99.90;;;;;;4973965;28;20226;-82
2023/04/09 12:38:20;;;;;;;9.03;5.93;;;18.30;99.90;;;;;;4973460;28;20224;-82
2023/04/09 12:40:47;;;;;;;9.07;6.00;;;18.10;99.90;;;;;;4975779;28;20263;-82
2023/04/09 12:43:14;;;;;;;10.87;5.67;;;18.10;99.90;;;;;;4974519;28;20205;-83
2023/04/09 12:45:41;;;;;;;18.43;6.50;;;18.00;99.90;;;;;;4975426;28;20208;-80
2023/04/09 12:48:11;;;;;;;13.07;6.63;;;17.90;99.90;;;;;;4973644;28;20225;-79
2023/04/09 12:50:38;;;;;;;8.37;5.40;;;17.70;99.90;;;;;;4974438;28;20233;-82